Time;durP1;ratioP1;P1;durP2;ratioP2;P2;SDS_P1;SDS_P2;PMS_P1;PMS_P2;Temp;Humidity;BMP_temperature;BMP_pressure;BME280_temperature;BME280_humidity;BME280_pressure;Samples;Min_cycle;Max_cycle;Signal;HPM_P1;HPM_P2
2022/05/11 00:01:43;;;;;;;10.00;4.32;;;14.30;99.90;;;;;;5040958;28;20037;-66
2022/05/11 00:04:10;;;;;;;6.35;4.25;;;14.40;99.90;;;;;;5043398;28;20032;-66
2022/05/11 00:06:37;;;;;;;9.70;5.82;;;14.40;99.90;;;;;;5042045;28;20106;-66
2022/05/11 00:09:05;;;;;;;5.75;4.10;;;14.40;99.90;;;;;;5027519;28;20047;-67
2022/05/11 00:11:31;;;;;;;8.38;4.28;;;14.30;99.90;;;;;;5039417;28;20128;-66
2022/05/11 00:13:58;;;;;;;9.27;3.28;;;14.30;99.90;;;;;;5071858;28;20471;-66
2022/05/11 00:16:26;;;;;;;4.57;3.40;;;14.20;99.90;;;;;;5043209;28;20049;-66
2022/05/11 00:18:51;;;;;;;8.00;4.15;;;14.20;99.90;;;;;;5043096;28;20037;-66
2022/05/11 00:21:17;;;;;;;9.18;4.90;;;14.20;99.90;;;;;;5043464;28;20376;-66
2022/05/11 00:23:43;;;;;;;6.55;4.10;;;14.10;99.90;;;;;;5043877;28;20128;-66
2022/05/11 00:26:09;;;;;;;5.90;3.58;;;14.10;99.90;;;;;;5041714;28;20064;-66
2022/05/11 00:28:34;;;;;;;10.55;4.95;;;14.10;99.90;;;;;;5042986;28;20088;-66
2022/05/11 00:31:01;;;;;;;10.77;4.03;;;14.10;99.90;;;;;;5042948;28;20627;-66
2022/05/11 00:33:27;;;;;;;7.88;4.10;;;14.10;99.90;;;;;;5067241;28;20040;-66
2022/05/11 00:35:53;;;;;;;7.63;4.05;;;14.10;99.90;;;;;;5044338;28;20037;-66
2022/05/11 00:38:20;;;;;;;7.57;3.80;;;14.10;99.90;;;;;;5040010;28;20025;-66
2022/05/11 00:40:54;;;;;;;6.53;3.55;;;14.10;99.90;;;;;;5053746;28;20049;-66
2022/05/11 00:43:32;;;;;;;4.82;3.20;;;14.10;99.90;;;;;;5043896;28;20047;-66
2022/05/11 00:46:24;;;;;;;5.90;3.30;;;14.20;99.90;;;;;;5040075;28;20133;-66
2022/05/11 00:51:47;;;;;;;7.68;3.60;;;14.10;99.90;;;;;;5042191;28;20551;-66
2022/05/11 00:54:15;;;;;;;5.43;3.25;;;14.10;99.90;;;;;;5041883;28;20033;-66
2022/05/11 00:56:46;;;;;;;4.28;3.08;;;14.10;99.90;;;;;;5039662;28;20041;-66
2022/05/11 00:59:21;;;;;;;5.85;3.42;;;14.10;99.90;;;;;;5068040;28;20176;-66
2022/05/11 01:01:47;;;;;;;7.25;3.17;;;14.20;99.90;;;;;;5048638;28;20036;-66
2022/05/11 01:04:16;;;;;;;5.88;3.70;;;14.10;99.90;;;;;;5039800;28;20069;-66
2022/05/11 01:06:42;;;;;;;6.30;3.75;;;14.10;99.90;;;;;;5041977;28;20076;-66
2022/05/11 01:09:10;;;;;;;6.03;3.35;;;14.10;99.90;;;;;;5040737;28;20557;-66
2022/05/11 01:11:43;;;;;;;7.35;4.22;;;14.00;99.90;;;;;;5038934;28;20155;-66
2022/05/11 01:14:12;;;;;;;9.32;3.83;;;14.10;99.90;;;;;;5042390;28;20090;-66
2022/05/11 01:16:40;;;;;;;5.22;3.58;;;14.10;99.90;;;;;;5047871;28;20395;-66
2022/05/11 01:19:08;;;;;;;5.88;3.38;;;14.00;99.90;;;;;;5047199;28;20136;-66
2022/05/11 01:21:51;;;;;;;7.45;3.28;;;14.10;99.90;;;;;;5073422;28;20049;-66
2022/05/11 01:24:34;;;;;;;6.38;3.60;;;14.10;99.90;;;;;;5046699;28;20485;-66
2022/05/11 01:27:25;;;;;;;6.20;3.72;;;14.00;99.90;;;;;;5048336;28;20032;-66
2022/05/11 01:29:51;;;;;;;5.60;3.35;;;14.00;99.90;;;;;;5074345;28;20044;-66
2022/05/11 01:32:18;;;;;;;4.88;3.22;;;14.00;99.90;;;;;;5044485;28;20195;-66
2022/05/11 01:34:44;;;;;;;7.28;3.63;;;14.00;99.90;;;;;;5043252;28;20076;-66
2022/05/11 01:37:10;;;;;;;4.22;3.33;;;14.00;99.90;;;;;;5046835;28;20176;-66
2022/05/11 01:39:35;;;;;;;3.28;2.92;;;14.10;99.90;;;;;;5072088;28;20084;-66
2022/05/11 01:42:01;;;;;;;6.45;3.15;;;14.10;99.90;;;;;;5043143;28;20064;-66
2022/05/11 01:44:26;;;;;;;5.82;3.30;;;14.10;99.90;;;;;;5049004;28;20158;-66
2022/05/11 01:46:56;;;;;;;6.13;3.20;;;14.10;99.90;;;;;;5047085;28;20056;-66
2022/05/11 01:49:24;;;;;;;5.65;2.90;;;14.10;99.90;;;;;;5044559;28;20461;-66
2022/05/11 01:51:50;;;;;;;6.50;3.40;;;14.10;99.90;;;;;;5043353;28;20091;-66
2022/05/11 01:54:16;;;;;;;8.05;3.33;;;14.10;99.90;;;;;;5057309;28;20128;-66
2022/05/11 01:56:41;;;;;;;6.63;3.65;;;14.00;99.90;;;;;;5042750;28;20776;-66
2022/05/11 01:59:07;;;;;;;9.02;4.65;;;14.00;99.90;;;;;;5044025;28;20052;-66
2022/05/11 02:01:36;;;;;;;4.28;3.03;;;14.00;99.90;;;;;;5047322;28;20570;-66
2022/05/11 02:04:03;;;;;;;5.75;3.15;;;14.00;99.90;;;;;;5076061;28;20054;-66
2022/05/11 02:09:13;;;;;;;6.20;3.47;;;14.00;99.90;;;;;;5044654;28;20052;-66
2022/05/11 02:11:54;;;;;;;6.10;3.67;;;13.90;99.90;;;;;;5048737;28;20029;-66
2022/05/11 02:14:20;;;;;;;11.52;3.33;;;14.00;99.90;;;;;;5041242;28;20124;-66
2022/05/11 02:16:45;;;;;;;8.25;3.25;;;13.90;99.90;;;;;;5042052;28;20039;-66
2022/05/11 02:19:11;;;;;;;5.40;3.30;;;13.90;99.90;;;;;;5043730;28;20052;-66
2022/05/11 02:21:37;;;;;;;4.78;3.45;;;13.90;99.90;;;;;;5047321;28;20047;-67
2022/05/11 02:24:03;;;;;;;9.63;3.95;;;13.90;99.90;;;;;;5045608;28;20037;-67
2022/05/11 02:26:28;;;;;;;6.72;3.65;;;14.00;99.90;;;;;;5043380;28;20029;-66
2022/05/11 02:28:55;;;;;;;5.22;2.90;;;13.90;99.90;;;;;;5072983;28;20045;-67
2022/05/11 02:31:20;;;;;;;9.90;4.45;;;13.90;99.90;;;;;;5027322;28;20628;-66
2022/05/11 02:33:46;;;;;;;5.43;3.92;;;14.00;99.90;;;;;;5054046;28;20049;-66
2022/05/11 02:36:12;;;;;;;7.07;3.65;;;14.00;99.90;;;;;;5042085;28;20053;-66
2022/05/11 02:38:40;;;;;;;12.10;4.72;;;14.00;99.90;;;;;;5074068;28;20041;-66
2022/05/11 02:41:06;;;;;;;5.30;3.80;;;14.00;99.90;;;;;;5046157;28;20947;-66
2022/05/11 02:43:32;;;;;;;7.20;4.15;;;14.00;99.90;;;;;;5042742;28;20048;-66
2022/05/11 02:45:57;;;;;;;8.48;4.15;;;14.00;99.90;;;;;;5043437;28;20041;-66
2022/05/11 02:48:24;;;;;;;10.88;3.85;;;14.00;99.90;;;;;;5043648;28;20122;-66
2022/05/11 02:50:53;;;;;;;6.95;3.67;;;13.90;99.90;;;;;;5044427;28;20040;-66
2022/05/11 02:53:20;;;;;;;8.10;3.83;;;13.90;99.90;;;;;;5039329;28;20056;-66
2022/05/11 02:55:48;;;;;;;7.70;3.80;;;13.90;99.90;;;;;;5055652;28;20076;-66
2022/05/11 02:58:18;;;;;;;7.15;3.72;;;13.90;99.90;;;;;;5038470;28;20049;-66
2022/05/11 03:00:45;;;;;;;5.97;3.90;;;13.90;99.90;;;;;;5040809;28;20568;-66
2022/05/11 03:03:13;;;;;;;8.48;4.10;;;13.90;99.90;;;;;;5043052;28;20047;-66
2022/05/11 03:05:40;;;;;;;5.68;3.45;;;13.90;99.90;;;;;;5040819;28;20039;-66
2022/05/11 03:08:07;;;;;;;5.63;3.22;;;13.90;99.90;;;;;;5040342;28;20045;-66
2022/05/11 03:10:33;;;;;;;8.10;4.10;;;13.90;99.90;;;;;;5071862;28;20040;-66
2022/05/11 03:12:59;;;;;;;9.32;4.55;;;13.90;99.90;;;;;;5074992;28;20068;-66
2022/05/11 03:15:25;;;;;;;8.30;3.70;;;13.80;99.90;;;;;;5038298;28;20132;-66
2022/05/11 03:17:51;;;;;;;5.63;3.63;;;13.90;99.90;;;;;;5037601;28;20043;-66
2022/05/11 03:20:21;;;;;;;9.25;3.65;;;13.80;99.90;;;;;;5042010;28;20036;-66
2022/05/11 03:22:47;;;;;;;8.38;3.30;;;13.90;99.90;;;;;;5042739;28;20037;-66
2022/05/11 03:25:13;;;;;;;5.63;3.25;;;13.90;99.90;;;;;;5039101;28;20036;-66
2022/05/11 03:27:38;;;;;;;8.75;3.35;;;14.00;99.90;;;;;;5042207;28;20103;-66
2022/05/11 03:30:05;;;;;;;5.05;3.15;;;14.00;99.90;;;;;;5039711;28;20041;-66
2022/05/11 03:35:15;;;;;;;10.70;3.40;;;13.90;99.90;;;;;;5069650;28;20095;-66
2022/05/11 03:37:41;;;;;;;5.28;3.15;;;13.90;99.90;;;;;;5041175;28;20736;-66
2022/05/11 03:40:08;;;;;;;6.82;2.90;;;14.00;99.90;;;;;;5039915;28;20052;-66
2022/05/11 03:42:35;;;;;;;8.65;3.58;;;14.00;99.90;;;;;;5041068;28;20041;-66
2022/05/11 03:45:05;;;;;;;8.70;3.17;;;14.00;99.90;;;;;;5040454;28;20083;-66
2022/05/11 03:47:30;;;;;;;5.50;2.90;;;13.90;99.90;;;;;;5073369;28;20410;-66
2022/05/11 03:49:56;;;;;;;6.65;2.90;;;13.90;99.90;;;;;;5040291;28;20037;-66
2022/05/11 03:52:23;;;;;;;5.43;2.95;;;13.90;99.90;;;;;;5037442;28;20041;-66
2022/05/11 03:54:48;;;;;;;5.72;2.78;;;13.90;99.90;;;;;;5039145;28;20048;-66
2022/05/11 03:57:14;;;;;;;7.40;3.08;;;13.90;99.90;;;;;;5040704;28;20037;-67
2022/05/11 03:59:40;;;;;;;8.02;3.92;;;13.90;99.90;;;;;;5039037;28;20033;-66
2022/05/11 04:02:05;;;;;;;4.18;2.83;;;13.90;99.90;;;;;;5039384;28;20145;-66
2022/05/11 04:04:31;;;;;;;8.27;4.18;;;13.90;99.90;;;;;;5039299;28;20045;-66
2022/05/11 04:06:56;;;;;;;6.72;2.88;;;13.90;99.90;;;;;;5037918;28;20483;-66
2022/05/11 04:09:22;;;;;;;7.38;3.53;;;13.90;99.90;;;;;;5040151;28;20041;-66
2022/05/11 04:11:48;;;;;;;8.75;3.10;;;13.90;99.90;;;;;;5069176;28;20562;-66
2022/05/11 04:14:13;;;;;;;7.30;3.45;;;13.90;99.90;;;;;;5042224;28;20052;-66
2022/05/11 04:16:39;;;;;;;13.57;4.10;;;13.90;99.90;;;;;;5039800;28;20048;-66
2022/05/11 04:19:04;;;;;;;7.53;3.58;;;14.00;99.90;;;;;;5038148;28;20478;-66
2022/05/11 04:21:30;;;;;;;7.93;3.40;;;14.00;99.90;;;;;;5041906;28;20519;-66
2022/05/11 04:23:56;;;;;;;11.52;3.28;;;14.20;99.90;;;;;;5036869;28;20051;-66
2022/05/11 04:26:22;;;;;;;5.95;3.33;;;14.00;99.90;;;;;;5039195;28;20070;-66
2022/05/11 04:28:47;;;;;;;5.88;2.88;;;14.00;99.90;;;;;;5039340;28;20060;-67
2022/05/11 04:31:13;;;;;;;9.02;4.07;;;14.10;99.90;;;;;;5037526;28;20053;-66
2022/05/11 04:33:40;;;;;;;7.80;3.35;;;14.10;99.90;;;;;;5039113;28;20039;-67
2022/05/11 04:36:06;;;;;;;8.77;3.60;;;14.20;99.90;;;;;;5040341;28;20049;-66
2022/05/11 04:38:32;;;;;;;7.40;3.78;;;14.20;99.90;;;;;;5071881;28;20475;-66
2022/05/11 04:40:58;;;;;;;10.02;3.38;;;14.10;99.90;;;;;;5042223;28;20052;-66
2022/05/11 04:43:24;;;;;;;7.90;3.20;;;14.10;99.90;;;;;;5039559;28;20045;-66
2022/05/11 04:45:49;;;;;;;8.77;3.17;;;14.10;99.90;;;;;;5041632;28;20577;-66
2022/05/11 04:48:17;;;;;;;7.35;3.53;;;14.10;99.90;;;;;;5042142;28;20037;-66
2022/05/11 04:50:44;;;;;;;11.60;3.60;;;14.10;99.90;;;;;;5038330;28;20167;-66
2022/05/11 04:53:14;;;;;;;14.82;4.10;;;14.20;99.90;;;;;;5039071;28;20505;-66
2022/05/11 04:55:40;;;;;;;7.22;3.40;;;14.20;99.90;;;;;;5034509;28;20053;-66
2022/05/11 04:58:06;;;;;;;6.25;3.20;;;14.20;99.90;;;;;;5035381;28;20045;-66
2022/05/11 05:00:34;;;;;;;6.53;3.38;;;14.20;99.90;;;;;;5068524;28;20724;-66
2022/05/11 05:03:02;;;;;;;15.45;3.42;;;14.20;99.90;;;;;;5036103;28;20446;-66
2022/05/11 05:05:27;;;;;;;18.23;5.30;;;14.20;99.90;;;;;;5035568;28;20033;-66
2022/05/11 05:07:54;;;;;;;10.38;4.72;;;14.20;99.90;;;;;;5037080;28;20056;-66
2022/05/11 05:10:21;;;;;;;13.05;4.32;;;14.30;99.90;;;;;;5044040;28;20126;-66
2022/05/11 05:12:48;;;;;;;5.97;3.28;;;14.30;99.90;;;;;;5040466;28;20044;-67
2022/05/11 05:15:15;;;;;;;6.63;3.47;;;14.30;99.90;;;;;;5039132;28;20790;-66
2022/05/11 05:17:41;;;;;;;10.82;4.72;;;14.40;99.90;;;;;;5046824;28;20040;-66
2022/05/11 05:20:07;;;;;;;11.43;4.25;;;14.40;99.90;;;;;;5042240;28;20071;-66
2022/05/11 05:22:36;;;;;;;8.15;4.05;;;14.40;99.90;;;;;;5040935;28;20041;-66
2022/05/11 05:25:02;;;;;;;7.32;4.45;;;14.40;99.90;;;;;;5041408;28;20039;-66
2022/05/11 05:27:28;;;;;;;8.52;3.70;;;14.50;99.90;;;;;;5075269;28;20037;-66
2022/05/11 05:32:40;;;;;;;12.40;4.45;;;14.60;99.90;;;;;;5040087;28;20403;-66
2022/05/11 05:35:08;;;;;;;7.75;3.70;;;14.60;99.90;;;;;;5041357;28;20036;-67
2022/05/11 05:37:35;;;;;;;13.90;4.50;;;14.70;99.90;;;;;;5040752;28;20049;-67
2022/05/11 05:40:01;;;;;;;11.68;4.32;;;14.80;99.90;;;;;;5043084;28;20082;-67
2022/05/11 05:42:28;;;;;;;10.70;3.65;;;14.80;99.90;;;;;;5043519;28;20115;-66
2022/05/11 05:44:54;;;;;;;7.30;3.42;;;14.80;99.90;;;;;;5045319;28;20045;-67
2022/05/11 05:47:20;;;;;;;11.88;4.90;;;14.80;99.90;;;;;;5042283;28;20033;-66
2022/05/11 05:49:46;;;;;;;11.95;3.97;;;14.80;99.90;;;;;;5041896;28;20038;-67
2022/05/11 05:52:21;;;;;;;8.82;4.10;;;14.80;99.90;;;;;;5038124;28;20102;-67
2022/05/11 05:54:47;;;;;;;7.47;4.07;;;14.90;99.90;;;;;;5044959;28;20037;-67
2022/05/11 05:57:14;;;;;;;12.93;4.38;;;14.90;99.90;;;;;;5040143;28;20049;-66
2022/05/11 05:59:41;;;;;;;6.57;3.90;;;14.90;99.90;;;;;;5043255;28;20056;-67
2022/05/11 06:02:12;;;;;;;10.35;4.07;;;15.00;99.90;;;;;;5044719;28;20530;-67
2022/05/11 06:04:48;;;;;;;10.13;4.22;;;14.90;99.90;;;;;;5042882;28;20036;-66
2022/05/11 06:07:15;;;;;;;8.68;4.22;;;15.00;99.90;;;;;;5043985;28;20581;-66
2022/05/11 06:09:41;;;;;;;9.63;4.45;;;15.00;99.90;;;;;;5044356;28;20053;-67
2022/05/11 06:12:08;;;;;;;12.48;5.18;;;15.00;99.90;;;;;;5046097;28;20052;-66
2022/05/11 06:14:34;;;;;;;12.60;4.65;;;15.10;99.90;;;;;;5025248;28;20102;-66
2022/05/11 06:17:03;;;;;;;9.43;3.83;;;15.10;99.90;;;;;;5043587;28;20407;-66
2022/05/11 06:19:29;;;;;;;6.22;3.15;;;15.10;99.90;;;;;;5043104;28;20052;-67
2022/05/11 06:21:55;;;;;;;17.10;5.65;;;15.10;99.90;;;;;;5047460;28;20080;-66
2022/05/11 06:24:21;;;;;;;8.50;3.97;;;15.10;99.90;;;;;;5035265;28;20052;-66
2022/05/11 06:26:47;;;;;;;12.20;4.28;;;15.20;99.90;;;;;;5072372;28;20037;-66
2022/05/11 06:29:13;;;;;;;7.07;3.78;;;15.30;99.90;;;;;;5071000;28;20037;-66
2022/05/11 06:31:39;;;;;;;5.50;3.13;;;15.40;99.90;;;;;;5039739;28;20495;-66
2022/05/11 06:34:05;;;;;;;10.82;3.10;;;15.40;99.90;;;;;;5036566;28;20049;-66
2022/05/11 06:36:31;;;;;;;6.97;3.40;;;15.50;99.90;;;;;;5038224;28;20033;-67
2022/05/11 06:38:57;;;;;;;9.70;4.20;;;15.50;99.90;;;;;;5040706;28;20049;-67
2022/05/11 06:41:25;;;;;;;10.23;3.63;;;15.70;99.90;;;;;;5039414;28;20041;-66
2022/05/11 06:43:53;;;;;;;10.10;3.70;;;15.60;99.90;;;;;;5038769;28;20159;-67
2022/05/11 06:46:19;;;;;;;12.07;3.53;;;15.70;99.90;;;;;;5037815;28;20037;-67
2022/05/11 06:48:48;;;;;;;10.38;3.08;;;15.70;99.90;;;;;;5038030;28;21745;-66
2022/05/11 06:51:15;;;;;;;9.13;3.25;;;15.90;99.90;;;;;;5036109;28;20123;-66
2022/05/11 06:59:23;;;;;;;9.38;2.95;;;15.90;99.90;;;;;;5070028;28;20072;-67
2022/05/11 07:01:55;;;;;;;11.23;3.15;;;16.00;99.90;;;;;;5042535;28;20055;-66
2022/05/11 07:04:22;;;;;;;7.03;2.33;;;16.10;99.90;;;;;;5037644;28;20463;-67
2022/05/11 07:06:50;;;;;;;9.35;2.00;;;16.00;99.90;;;;;;5069522;28;20087;-66
2022/05/11 07:09:16;;;;;;;11.82;2.72;;;16.20;99.90;;;;;;5036671;28;20091;-67
2022/05/11 07:14:26;;;;;;;6.60;2.20;;;16.40;99.90;;;;;;5068704;28;20108;-67
2022/05/11 07:16:52;;;;;;;9.73;2.65;;;16.50;99.90;;;;;;5033616;28;20483;-67
2022/05/11 07:19:21;;;;;;;8.02;2.20;;;16.70;99.90;;;;;;5034443;28;21689;-67
2022/05/11 07:21:47;;;;;;;5.35;1.80;;;16.80;99.90;;;;;;5033819;28;20041;-67
2022/05/11 07:24:12;;;;;;;6.80;1.98;;;16.90;99.90;;;;;;5035246;28;20036;-67
2022/05/11 07:26:38;;;;;;;8.18;2.10;;;16.90;99.90;;;;;;5041936;28;20066;-67
2022/05/11 07:29:04;;;;;;;12.02;2.08;;;17.00;99.90;;;;;;5037760;28;20074;-67
2022/05/11 07:31:30;;;;;;;9.70;1.95;;;17.10;99.90;;;;;;5034799;28;20131;-67
2022/05/11 07:33:56;;;;;;;6.78;2.20;;;17.20;99.90;;;;;;5074239;28;20086;-67
2022/05/11 07:36:24;;;;;;;6.00;1.85;;;17.40;99.90;;;;;;5039038;28;20479;-67
2022/05/11 07:38:50;;;;;;;13.00;2.50;;;17.50;99.90;;;;;;5033450;28;20041;-67
2022/05/11 07:41:16;;;;;;;15.15;1.83;;;17.60;99.90;;;;;;5069886;28;20041;-67
2022/05/11 07:43:42;;;;;;;12.20;2.13;;;17.50;99.90;;;;;;5073996;28;20049;-66
2022/05/11 07:46:07;;;;;;;10.68;2.40;;;17.60;99.90;;;;;;5037020;28;20048;-67
2022/05/11 07:48:33;;;;;;;8.68;1.70;;;17.50;99.90;;;;;;5038313;28;20048;-67
2022/05/11 07:50:58;;;;;;;7.35;1.98;;;17.40;99.90;;;;;;5037849;28;20890;-67
2022/05/11 07:53:24;;;;;;;14.13;2.10;;;17.30;99.90;;;;;;5040439;28;20138;-67
2022/05/11 07:59:52;;;;;;;11.85;2.45;;;17.30;99.90;;;;;;5068200;28;20067;-67
2022/05/11 08:01:20;;;;;;;9.40;1.90;;;17.30;99.90;;;;;;5038833;28;20126;-67
2022/05/11 08:03:45;;;;;;;12.95;2.47;;;17.30;99.90;;;;;;5034271;28;20131;-67
2022/05/11 08:06:11;;;;;;;7.95;1.55;;;17.50;99.90;;;;;;5039266;28;20490;-67
2022/05/11 08:08:37;;;;;;;16.55;1.42;;;17.80;99.90;;;;;;5037870;28;20044;-67
2022/05/11 08:11:04;;;;;;;15.40;2.25;;;18.20;99.90;;;;;;5038033;28;20124;-66
2022/05/11 08:13:30;;;;;;;21.60;2.63;;;18.50;99.90;;;;;;5068157;28;20041;-67
2022/05/11 08:15:56;;;;;;;41.72;4.80;;;18.50;99.90;;;;;;5037961;28;20052;-67
2022/05/11 08:18:21;;;;;;;15.60;1.60;;;18.70;99.90;;;;;;5037151;28;20033;-67
2022/05/11 08:20:47;;;;;;;15.70;2.38;;;18.80;99.90;;;;;;5035683;28;20068;-67
2022/05/11 08:23:13;;;;;;;12.40;2.80;;;19.10;99.90;;;;;;5034962;28;20033;-67
2022/05/11 08:25:41;;;;;;;14.95;2.42;;;19.10;99.90;;;;;;5037270;28;20091;-67
2022/05/11 08:28:21;;;;;;;17.15;2.13;;;19.00;99.90;;;;;;5037141;28;20143;-67
2022/05/11 08:33:35;;;;;;;7.90;1.55;;;18.70;99.90;;;;;;5037205;28;20037;-67
2022/05/11 08:36:06;;;;;;;10.88;1.70;;;18.80;99.90;;;;;;5039018;28;20048;-67
2022/05/11 08:38:39;;;;;;;12.93;2.67;;;18.90;99.90;;;;;;5033921;28;20036;-67
2022/05/11 08:41:26;;;;;;;13.93;2.33;;;19.00;99.90;;;;;;5037568;28;20429;-67
2022/05/11 08:44:02;;;;;;;20.15;2.55;;;19.00;99.90;;;;;;5037819;28;21556;-67
2022/05/11 08:47:06;;;;;;;50.58;4.32;;;18.90;99.90;;;;;;5054173;28;20091;-67
2022/05/11 08:49:54;;;;;;;17.80;2.58;;;18.90;99.90;;;;;;5034316;28;20132;-67
2022/05/11 08:52:22;;;;;;;12.48;2.22;;;18.90;99.90;;;;;;5038165;28;20049;-67
2022/05/11 08:55:06;;;;;;;8.18;1.55;;;18.90;99.90;;;;;;5034354;28;20046;-67
2022/05/11 08:57:33;;;;;;;19.17;1.98;;;18.90;99.90;;;;;;5066161;28;20516;-67
2022/05/11 09:00:04;;;;;;;12.38;1.75;;;18.90;99.90;;;;;;5039682;28;20537;-67
2022/05/11 09:02:57;;;;;;;10.93;1.48;;;19.00;99.90;;;;;;5038609;28;20045;-67
2022/05/11 09:05:26;;;;;;;12.90;3.25;;;19.40;99.90;;;;;;5037178;28;20045;-67
2022/05/11 09:07:54;;;;;;;21.75;3.25;;;19.60;99.90;;;;;;5034930;28;21690;-67
2022/05/11 09:10:24;;;;;;;26.02;2.53;;;19.90;99.70;;;;;;5039016;28;20048;-67
2022/05/11 09:12:59;;;;;;;18.17;1.77;;;20.00;99.50;;;;;;5036313;28;20037;-67
2022/05/11 09:15:49;;;;;;;13.50;1.67;;;20.00;98.70;;;;;;5036857;28;20041;-67
2022/05/11 09:18:16;;;;;;;13.80;1.85;;;19.90;98.90;;;;;;5030665;28;20052;-67
2022/05/11 09:20:48;;;;;;;12.38;2.25;;;19.90;98.90;;;;;;5036621;28;20087;-67
2022/05/11 09:23:13;;;;;;;8.43;1.90;;;20.10;99.10;;;;;;5040563;28;20037;-67
2022/05/11 09:26:03;;;;;;;10.98;1.30;;;20.20;98.50;;;;;;5035772;28;20032;-67
2022/05/11 09:28:32;;;;;;;15.77;2.95;;;20.10;98.10;;;;;;5035669;28;20048;-67
2022/05/11 09:31:13;;;;;;;12.30;1.88;;;20.10;98.10;;;;;;5038234;28;20047;-67
2022/05/11 09:33:42;;;;;;;13.30;2.00;;;20.20;98.10;;;;;;5067450;28;20048;-67
2022/05/11 09:36:10;;;;;;;17.90;1.98;;;20.50;99.90;;;;;;5036501;28;20064;-67
2022/05/11 09:38:42;;;;;;;28.23;2.92;;;20.70;98.70;;;;;;5052003;28;20049;-67
2022/05/11 09:41:28;;;;;;;15.38;2.55;;;20.90;97.40;;;;;;5075056;28;20040;-67
2022/05/11 09:43:56;;;;;;;15.60;1.65;;;21.00;96.90;;;;;;5041640;28;20132;-67
2022/05/11 09:46:29;;;;;;;46.90;3.65;;;21.20;97.10;;;;;;5054622;28;20059;-68
2022/05/11 09:48:58;;;;;;;24.50;3.17;;;21.20;94.90;;;;;;5039648;28;20041;-67
2022/05/11 09:51:41;;;;;;;59.22;5.38;;;21.10;94.80;;;;;;5070539;28;20037;-67
2022/05/11 09:54:13;;;;;;;23.75;2.60;;;21.30;93.30;;;;;;5038513;28;20094;-68
2022/05/11 09:56:56;;;;;;;24.40;2.05;;;21.40;93.00;;;;;;5068754;28;20376;-68
2022/05/11 09:59:37;;;;;;;14.57;1.88;;;21.20;92.70;;;;;;5038679;28;20127;-67
2022/05/11 10:02:22;;;;;;;14.70;1.92;;;21.30;94.00;;;;;;5024122;28;20075;-67
2022/05/11 10:05:01;;;;;;;21.23;1.77;;;21.50;94.50;;;;;;5036247;28;20051;-67
2022/05/11 10:07:31;;;;;;;22.75;1.92;;;21.80;90.90;;;;;;5039514;28;21205;-67
2022/05/11 10:10:17;;;;;;;12.55;1.48;;;21.90;89.80;;;;;;5070993;28;20140;-69
2022/05/11 10:12:43;;;;;;;21.45;1.73;;;22.10;90.90;;;;;;5037512;28;20079;-69
2022/05/11 10:24:22;;;;;;;12.63;1.20;;;22.30;83.70;;;;;;5070201;28;20045;-68
2022/05/11 10:26:50;;;;;;;71.75;5.72;;;22.50;84.10;;;;;;5072694;28;20044;-68
2022/05/11 10:29:50;;;;;;;19.50;2.42;;;22.60;81.40;;;;;;5038496;28;20131;-68
2022/05/11 10:33:10;;;;;;;11.80;1.25;;;22.50;80.70;;;;;;5038748;28;21829;-68
2022/05/11 10:35:52;;;;;;;11.90;1.52;;;22.40;81.40;;;;;;4961479;28;20046;-69
2022/05/11 10:38:41;;;;;;;10.30;1.35;;;22.50;79.20;;;;;;5039863;28;20055;-69
2022/05/11 10:41:12;;;;;;;9.27;1.50;;;22.50;82.60;;;;;;5036946;28;20163;-68
2022/05/11 10:43:49;;;;;;;18.23;2.53;;;22.60;82.20;;;;;;5040194;28;20037;-69
2022/05/11 10:46:26;;;;;;;7.25;1.70;;;22.70;81.70;;;;;;5039670;28;20041;-68
2022/05/11 10:49:33;;;;;;;16.40;2.60;;;22.90;82.70;;;;;;5036065;28;20052;-68
2022/05/11 10:52:20;;;;;;;9.82;1.42;;;23.10;81.00;;;;;;5039263;28;20491;-68
2022/05/11 10:55:25;;;;;;;36.75;4.75;;;23.00;80.40;;;;;;5036199;28;20048;-69
2022/05/11 10:58:06;;;;;;;9.25;1.25;;;22.70;79.80;;;;;;5038128;28;20051;-68
2022/05/11 11:00:36;;;;;;;7.25;1.65;;;22.70;83.00;;;;;;5039528;28;20037;-68
2022/05/11 11:03:29;;;;;;;7.45;1.48;;;22.90;82.20;;;;;;5037698;28;20033;-67
2022/05/11 11:09:11;;;;;;;15.52;1.75;;;23.20;80.40;;;;;;5040134;28;20667;-68
2022/05/11 11:11:56;;;;;;;11.93;2.05;;;23.00;82.30;;;;;;5039799;28;20403;-68
2022/05/11 11:14:29;;;;;;;;;;;22.80;79.10;;;;;;5072569;28;20041;-68
2022/05/11 11:16:55;;;;;;;13.25;1.92;;;22.50;81.40;;;;;;5038796;28;20015;-68
2022/05/11 11:19:21;;;;;;;89.00;8.55;;;22.20;80.00;;;;;;5036810;28;20118;-68
2022/05/11 11:21:47;;;;;;;6.95;2.28;;;22.30;81.50;;;;;;5041103;28;20086;-68
2022/05/11 11:24:22;;;;;;;9.18;1.80;;;22.40;82.50;;;;;;5041387;28;20395;-68
2022/05/11 11:26:54;;;;;;;13.80;2.60;;;22.60;82.30;;;;;;5071660;28;20067;-67
2022/05/11 11:29:28;;;;;;;10.52;1.55;;;22.70;82.20;;;;;;5038083;28;20308;-68
2022/05/11 11:31:58;;;;;;;11.87;1.80;;;22.90;82.10;;;;;;5035284;28;20059;-68
2022/05/11 11:34:30;;;;;;;10.93;1.55;;;22.90;81.10;;;;;;5033552;28;20857;-67
2022/05/11 11:36:56;;;;;;;8.95;1.48;;;22.90;80.30;;;;;;5040830;28;20033;-68
2022/05/11 11:39:57;;;;;;;10.48;3.20;;;22.80;80.10;;;;;;5039059;28;20048;-68
2022/05/11 11:42:36;;;;;;;10.73;1.20;;;22.90;80.50;;;;;;5039713;28;20032;-68
2022/05/11 11:45:07;;;;;;;13.88;1.33;;;23.00;79.00;;;;;;5038922;28;20484;-68
2022/05/11 11:47:39;;;;;;;10.13;2.22;;;23.00;77.20;;;;;;5037129;28;20033;-68
2022/05/11 11:50:11;;;;;;;12.32;1.50;;;23.10;78.40;;;;;;5039348;28;20049;-68
2022/05/11 11:52:43;;;;;;;13.38;1.75;;;23.00;78.10;;;;;;5072150;28;20047;-69
2022/05/11 11:55:18;;;;;;;8.38;1.80;;;23.00;77.30;;;;;;5034955;28;20079;-68
2022/05/11 11:57:46;;;;;;;14.55;1.90;;;23.00;78.00;;;;;;5037430;28;20048;-68
2022/05/11 12:00:40;;;;;;;21.45;2.00;;;23.00;79.60;;;;;;5035788;28;20044;-68
2022/05/11 12:03:16;;;;;;;10.05;2.00;;;23.20;78.90;;;;;;5067654;28;20044;-68
2022/05/11 12:05:48;;;;;;;10.82;1.65;;;23.20;78.10;;;;;;5036027;28;20155;-68
2022/05/11 12:16:59;;;;;;;14.35;1.92;;;22.80;79.50;;;;;;5037416;28;20053;-68
2022/05/11 12:19:38;;;;;;;8.15;1.63;;;22.90;79.80;;;;;;5034835;28;20383;-68
2022/05/11 12:22:22;;;;;;;13.95;2.13;;;22.70;77.20;;;;;;5038172;28;20492;-68
2022/05/11 12:25:11;;;;;;;34.13;3.58;;;22.90;78.70;;;;;;5040486;28;20049;-70
2022/05/11 12:27:37;;;;;;;15.95;2.05;;;22.90;77.60;;;;;;5026249;28;21899;-68
2022/05/11 12:30:21;;;;;;;19.58;2.03;;;22.80;77.80;;;;;;5034601;28;20033;-68
2022/05/11 12:32:58;;;;;;;8.30;1.38;;;22.60;77.50;;;;;;5035199;28;20491;-68
2022/05/11 12:35:29;;;;;;;13.75;2.28;;;22.60;78.30;;;;;;5052863;28;20075;-68
2022/05/11 12:38:04;;;;;;;16.35;2.30;;;22.40;77.30;;;;;;5037763;28;20111;-69
2022/05/11 12:40:45;;;;;;;18.17;2.13;;;22.50;77.00;;;;;;5054918;28;20037;-68
2022/05/11 12:43:22;;;;;;;20.00;2.35;;;22.40;77.20;;;;;;5034119;28;20036;-68
2022/05/11 12:45:48;;;;;;;9.63;1.52;;;22.30;76.90;;;;;;5066760;28;20041;-68
2022/05/11 12:48:19;;;;;;;12.82;2.00;;;22.50;80.60;;;;;;5035671;28;20036;-68
2022/05/11 12:51:01;;;;;;;22.05;2.40;;;22.70;79.30;;;;;;5034454;28;20055;-68
2022/05/11 12:53:30;;;;;;;13.75;1.80;;;22.90;81.60;;;;;;5035224;28;20044;-68
2022/05/11 12:56:31;;;;;;;8.00;1.85;;;23.10;79.20;;;;;;5036866;28;20028;-68
2022/05/11 12:59:03;;;;;;;20.23;2.75;;;23.30;79.20;;;;;;4984148;28;20052;-68
2022/05/11 13:01:32;;;;;;;22.80;2.75;;;23.50;78.20;;;;;;5038478;28;20051;-68
2022/05/11 13:03:59;;;;;;;16.50;2.63;;;23.60;79.30;;;;;;5034117;28;20036;-68
2022/05/11 13:06:40;;;;;;;25.55;2.72;;;23.30;74.50;;;;;;5036086;28;20051;-68
2022/05/11 13:09:23;;;;;;;14.60;2.22;;;23.20;76.60;;;;;;5030958;28;20049;-68
2022/05/11 13:11:50;;;;;;;16.20;3.33;;;23.10;74.40;;;;;;5033731;28;21415;-69
2022/05/11 13:14:19;;;;;;;15.15;1.90;;;22.90;76.50;;;;;;5035062;28;20394;-68
2022/05/11 13:16:54;;;;;;;9.88;1.48;;;22.90;78.30;;;;;;5070881;28;20102;-68
2022/05/11 13:19:24;;;;;;;15.13;2.83;;;23.00;75.30;;;;;;5036722;28;20077;-68
2022/05/11 13:21:51;;;;;;;19.20;2.80;;;22.90;77.60;;;;;;5068196;28;20626;-68
2022/05/11 13:24:41;;;;;;;9.32;1.45;;;22.90;78.00;;;;;;5036530;28;20094;-67
2022/05/11 13:27:28;;;;;;;10.85;1.98;;;22.90;76.00;;;;;;5032779;28;20074;-68
2022/05/11 13:30:40;;;;;;;34.28;3.95;;;22.70;76.50;;;;;;5067008;28;20048;-68
2022/05/11 13:33:35;;;;;;;19.77;2.33;;;22.50;76.10;;;;;;5026519;28;20060;-68
2022/05/11 13:36:28;;;;;;;13.40;1.88;;;22.10;77.40;;;;;;5037486;28;20045;-68
2022/05/11 13:39:02;;;;;;;15.93;2.35;;;22.10;79.20;;;;;;5031850;28;20862;-68
2022/05/11 13:41:36;;;;;;;14.52;2.17;;;22.10;79.10;;;;;;5031339;28;20037;-68
2022/05/11 13:44:06;;;;;;;20.98;3.17;;;22.20;79.20;;;;;;5032372;28;21733;-68
2022/05/11 13:48:11;;;;;;;12.40;2.22;;;22.20;78.70;;;;;;5033617;28;20127;-68
2022/05/11 13:49:31;;;;;;;11.25;2.83;;;22.30;78.60;;;;;;5033176;28;20099;-68